THY5JB LTFM-LTFE
Flight info
| Callsign | THY5JB |
|---|---|
| Flight time | N/A |
| Altitude | 37000 |
| Route | RATVU1H/18 RATVU UT35 NUMTI/N0444F380 DCT KULAR/N0439F370 UT44 LAVTA UW87 KAVAK |
| Aircraft | B738/M-SDE2E3FGHIRWXY/LB1 |
Departure
| Time | N/A |
|---|---|
| Airport | İstanbul Airport (LTFM) |
Arrival
| Time | 2026-04-20 14:38 |
|---|---|
| Airport | Milas Bodrum International Airport (LTFE) |
| Time | Latitude | Longitude | Altitude | Speed | Heading |
|---|---|---|---|---|---|
| 2026-04-20 14:38 | 37.24403 | 27.67720 | 28 ft | 0 kts | 197° |
| 2026-04-20 14:59 | 37.24416 | 27.67725 | 29 ft | 2 kts | 196° |
| 2026-04-20 15:00 | 37.24432 | 27.67730 | 29 ft | 2 kts | 194° |
| 2026-04-20 15:00 | 37.24448 | 27.67735 | 29 ft | 2 kts | 192° |
| 2026-04-20 15:00 | 37.24464 | 27.67738 | 29 ft | 2 kts | 185° |
| 2026-04-20 15:00 | 37.24481 | 27.67738 | 29 ft | 2 kts | 161° |
| 2026-04-20 15:01 | 37.24493 | 27.67726 | 29 ft | 2 kts | 107° |
| 2026-04-20 15:01 | 37.24494 | 27.67722 | 30 ft | 0 kts | 106° |
| 2026-04-20 15:04 | 37.24492 | 27.67729 | 29 ft | 3 kts | 109° |
| 2026-04-20 15:04 | 37.24477 | 27.67783 | 29 ft | 9 kts | 107° |
| 2026-04-20 15:04 | 37.24457 | 27.67868 | 29 ft | 11 kts | 107° |
| 2026-04-20 15:05 | 37.24442 | 27.67929 | 29 ft | 11 kts | 106° |
| 2026-04-20 15:05 | 37.24430 | 27.68013 | 30 ft | 6 kts | 76° |
| 2026-04-20 15:05 | 37.24463 | 27.68047 | 29 ft | 6 kts | 12° |
| 2026-04-20 15:05 | 37.24512 | 27.68061 | 29 ft | 9 kts | 14° |
| 2026-04-20 15:06 | 37.24578 | 27.68084 | 29 ft | 11 kts | 16° |
| 2026-04-20 15:06 | 37.24655 | 27.68113 | 29 ft | 12 kts | 16° |
| 2026-04-20 15:06 | 37.24711 | 27.68120 | 29 ft | 6 kts | 343° |
| 2026-04-20 15:06 | 37.24738 | 27.68082 | 29 ft | 7 kts | 292° |
| 2026-04-20 15:07 | 37.24772 | 27.67940 | 31 ft | 38 kts | 287° |
| 2026-04-20 15:07 | 37.24928 | 27.67297 | 30 ft | 113 kts | 287° |
| 2026-04-20 15:07 | 37.25211 | 27.66111 | 108 ft | 164 kts | 287° |
| 2026-04-20 15:07 | 37.25552 | 27.64676 | 798 ft | 170 kts | 286° |
| 2026-04-20 15:08 | 37.25896 | 27.63253 | 1690 ft | 164 kts | 286° |
| 2026-04-20 15:08 | 37.26203 | 27.61911 | 2567 ft | 157 kts | 284° |
| 2026-04-20 15:08 | 37.26444 | 27.60477 | 2973 ft | 183 kts | 281° |
| 2026-04-20 15:08 | 37.26726 | 27.58793 | 3236 ft | 210 kts | 283° |
| 2026-04-20 15:09 | 37.27098 | 27.56920 | 3420 ft | 233 kts | 284° |
| 2026-04-20 15:09 | 37.27517 | 27.54857 | 3629 ft | 255 kts | 284° |
| 2026-04-20 15:09 | 37.27949 | 27.52727 | 4230 ft | 264 kts | 284° |
| 2026-04-20 15:09 | 37.28427 | 27.50367 | 5134 ft | 265 kts | 284° |
| 2026-04-20 15:10 | 37.28709 | 27.47996 | 5924 ft | 270 kts | 264° |
| 2026-04-20 15:10 | 37.28117 | 27.45801 | 6726 ft | 272 kts | 236° |
| 2026-04-20 15:10 | 37.26722 | 27.44155 | 7556 ft | 276 kts | 208° |
| 2026-04-20 15:10 | 37.24871 | 27.43510 | 8354 ft | 280 kts | 181° |
| 2026-04-20 15:11 | 37.22967 | 27.44005 | 9156 ft | 284 kts | 154° |
| 2026-04-20 15:11 | 37.21411 | 27.45579 | 9973 ft | 288 kts | 126° |
| 2026-04-20 15:11 | 37.20580 | 27.47895 | 10563 ft | 303 kts | 101° |
| 2026-04-20 15:11 | 37.20616 | 27.50624 | 10762 ft | 328 kts | 77° |
| 2026-04-20 15:12 | 37.21493 | 27.53371 | 10988 ft | 350 kts | 62° |
| 2026-04-20 15:12 | 37.22687 | 27.56093 | 11533 ft | 361 kts | 61° |
| 2026-04-20 15:12 | 37.23878 | 27.58895 | 12275 ft | 365 kts | 63° |
| 2026-04-20 15:12 | 37.25011 | 27.61759 | 13068 ft | 368 kts | 64° |
| 2026-04-20 15:13 | 37.26132 | 27.64650 | 13830 ft | 372 kts | 60° |
| 2026-04-20 15:13 | 37.27811 | 27.67195 | 14582 ft | 376 kts | 38° |
| 2026-04-20 15:13 | 37.30036 | 27.68826 | 15341 ft | 380 kts | 21° |
| 2026-04-20 15:13 | 37.32655 | 27.69552 | 16084 ft | 383 kts | 2° |
| 2026-04-20 15:14 | 37.35307 | 27.69244 | 16815 ft | 387 kts | 345° |
| 2026-04-20 15:14 | 37.37824 | 27.67808 | 17536 ft | 390 kts | 325° |